Time;durP1;ratioP1;P1;durP2;ratioP2;P2;SDS_P1;SDS_P2;PMS_P1;PMS_P2;Temp;Humidity;BMP_temperature;BMP_pressure;BME280_temperature;BME280_humidity;BME280_pressure;Samples;Min_cycle;Max_cycle;Signal;HPM_P1;HPM_P2
2023/01/14 00:00:44;;;;;;;;;;;;;;;;;;2341293;23;7063;-66
2023/01/14 00:01:41;;;;;;;;;;;;;;;;;;2341317;23;7012;-66
2023/01/14 00:02:39;;;;;;;;;;;;;;;;;;2341506;23;7336;-65
2023/01/14 00:03:37;;;;;;;;;;;;;;;;;;2342258;23;7060;-64
2023/01/14 00:04:34;;;;;;;;;;;;;;;;;;2341738;23;7095;-65
2023/01/14 00:05:31;;;;;;;;;;;;;;;;;;2342105;23;7206;-66
2023/01/14 00:06:31;;;;;;;;;;;;;;;;;;2341175;23;7008;-66
2023/01/14 00:07:28;;;;;;;;;;;;;;;;;;2341584;23;7060;-66
2023/01/14 00:08:26;;;;;;;;;;;;;;;;;;2341618;23;6997;-66
2023/01/14 00:09:27;;;;;;;;;;;;;;;;;;2341222;23;7102;-66
2023/01/14 00:10:24;;;;;;;;;;;;;;;;;;2341607;23;7001;-65
2023/01/14 00:11:45;;;;;;;;;;;;;;;;;;2342660;23;7028;-65
2023/01/14 00:12:38;;;;;;;;;;;;;;;;;;2341838;23;7291;-67
2023/01/14 00:13:37;;;;;;;;;;;;;;;;;;2341840;23;7000;-63
2023/01/14 00:14:34;;;;;;;;;;;;;;;;;;2341287;23;7279;-66
2023/01/14 00:15:32;;;;;;;;;;;;;;;;;;2341479;23;7000;-66
2023/01/14 00:16:29;;;;;;;;;;;;;;;;;;2341143;23;7001;-63
2023/01/14 00:17:27;;;;;;;;;;;;;;;;;;2341288;23;7000;-65
2023/01/14 00:18:24;;;;;;;;;;;;;;;;;;2341458;23;7999;-66
2023/01/14 00:19:22;;;;;;;;;;;;;;;;;;2341612;23;6996;-66
2023/01/14 00:20:20;;;;;;;;;;;;;;;;;;2341745;23;7091;-65
2023/01/14 00:21:17;;;;;;;;;;;;;;;;;;2341525;23;7067;-65
2023/01/14 00:22:14;;;;;;;;;;;;;;;;;;2341612;23;7004;-65
2023/01/14 00:23:12;;;;;;;;;;;;;;;;;;2341141;23;7998;-65
2023/01/14 00:24:10;;;;;;;;;;;;;;;;;;2341144;23;7029;-67
2023/01/14 00:25:07;;;;;;;;;;;;;;;;;;2341098;23;6996;-66
2023/01/14 00:26:11;;;;;;;;;;;;;;;;;;2329187;23;7443;-65
2023/01/14 00:27:08;;;;;;;;;;;;;;;;;;2329543;23;6996;-63
2023/01/14 00:28:06;;;;;;;;;;;;;;;;;;2341236;23;7000;-65
2023/01/14 00:29:03;;;;;;;;;;;;;;;;;;2340938;23;7076;-65
2023/01/14 00:30:01;;;;;;;;;;;;;;;;;;2340958;23;6992;-65
2023/01/14 00:31:12;;;;;;;;;;;;;;;;;;2340832;23;7067;-65
2023/01/14 00:32:09;;;;;;;;;;;;;;;;;;2341392;23;6996;-65
2023/01/14 00:33:07;;;;;;;;;;;;;;;;;;2341589;23;6992;-65
2023/01/14 00:34:04;;;;;;;;;;;;;;;;;;2341143;23;6996;-65
2023/01/14 00:35:02;;;;;;;;;;;;;;;;;;2329195;23;7136;-65
2023/01/14 00:35:59;;;;;;;;;;;;;;;;;;2329994;23;7036;-66
2023/01/14 00:36:57;;;;;;;;;;;;;;;;;;2339850;23;7008;-65
2023/01/14 00:37:56;;;;;;;;;;;;;;;;;;2341578;23;7000;-66
2023/01/14 00:38:54;;;;;;;;;;;;;;;;;;2341780;23;7037;-65
2023/01/14 00:39:51;;;;;;;;;;;;;;;;;;2341628;23;7229;-66
2023/01/14 00:40:48;;;;;;;;;;;;;;;;;;2341436;23;7004;-65
2023/01/14 00:41:46;;;;;;;;;;;;;;;;;;2342060;23;7004;-65
2023/01/14 00:42:43;;;;;;;;;;;;;;;;;;2341518;23;6996;-65
2023/01/14 00:43:42;;;;;;;;;;;;;;;;;;2340870;23;7008;-65
2023/01/14 00:44:39;;;;;;;;;;;;;;;;;;2341099;23;8066;-66
2023/01/14 00:45:37;;;;;;;;;;;;;;;;;;2340770;23;7008;-65
2023/01/14 00:46:35;;;;;;;;;;;;;;;;;;2341331;23;7041;-64
2023/01/14 00:47:33;;;;;;;;;;;;;;;;;;2339047;23;7084;-65
2023/01/14 00:48:30;;;;;;;;;;;;;;;;;;2340306;23;7141;-65
2023/01/14 00:49:28;;;;;;;;;;;;;;;;;;2340845;23;7995;-65
2023/01/14 00:50:25;;;;;;;;;;;;;;;;;;2341468;23;7083;-65
2023/01/14 00:51:22;;;;;;;;;;;;;;;;;;2341333;23;7983;-65
2023/01/14 00:52:20;;;;;;;;;;;;;;;;;;2341348;23;6996;-64
2023/01/14 00:53:17;;;;;;;;;;;;;;;;;;2340993;23;7063;-66
2023/01/14 00:54:15;;;;;;;;;;;;;;;;;;2341119;23;7281;-65
2023/01/14 00:55:13;;;;;;;;;;;;;;;;;;2341678;23;7075;-65
2023/01/14 00:56:10;;;;;;;;;;;;;;;;;;2340836;23;7042;-65
2023/01/14 00:57:07;;;;;;;;;;;;;;;;;;2341386;23;7032;-65
2023/01/14 00:58:05;;;;;;;;;;;;;;;;;;2341084;23;7001;-66
2023/01/14 00:59:02;;;;;;;;;;;;;;;;;;2341121;23;6996;-65
2023/01/14 01:00:00;;;;;;;;;;;;;;;;;;2341036;23;7029;-65
2023/01/14 01:00:57;;;;;;;;;;;;;;;;;;2341063;23;7489;-65
2023/01/14 01:01:55;;;;;;;;;;;;;;;;;;2329299;23;9136;-65
2023/01/14 01:02:53;;;;;;;;;;;;;;;;;;2318456;23;7120;-65
2023/01/14 01:03:52;;;;;;;;;;;;;;;;;;2327857;23;8410;-65
2023/01/14 01:04:49;;;;;;;;;;;;;;;;;;2340541;23;7024;-65
2023/01/14 01:05:47;;;;;;;;;;;;;;;;;;2341195;23;7991;-64
2023/01/14 01:06:45;;;;;;;;;;;;;;;;;;2340709;23;7068;-65
2023/01/14 01:07:42;;;;;;;;;;;;;;;;;;2341634;23;8048;-65
2023/01/14 01:08:40;;;;;;;;;;;;;;;;;;2341011;23;7176;-66
2023/01/14 01:09:37;;;;;;;;;;;;;;;;;;2342063;23;7063;-65
2023/01/14 01:10:35;;;;;;;;;;;;;;;;;;2341260;23;7091;-65
2023/01/14 01:11:32;;;;;;;;;;;;;;;;;;2341056;23;7034;-64
2023/01/14 01:12:32;;;;;;;;;;;;;;;;;;2329259;23;6996;-65
2023/01/14 01:13:30;;;;;;;;;;;;;;;;;;2328831;23;7001;-65
2023/01/14 01:14:27;;;;;;;;;;;;;;;;;;2340230;23;7004;-65
2023/01/14 01:15:25;;;;;;;;;;;;;;;;;;2341065;23;7004;-66
2023/01/14 01:16:24;;;;;;;;;;;;;;;;;;2341525;23;7000;-65
2023/01/14 01:17:21;;;;;;;;;;;;;;;;;;2341943;23;7088;-63
2023/01/14 01:18:19;;;;;;;;;;;;;;;;;;2340787;23;8074;-63
2023/01/14 01:19:16;;;;;;;;;;;;;;;;;;2341291;23;7067;-65
2023/01/14 01:20:14;;;;;;;;;;;;;;;;;;2340990;23;7080;-65
2023/01/14 01:21:14;;;;;;;;;;;;;;;;;;2341369;23;7208;-66
2023/01/14 01:22:12;;;;;;;;;;;;;;;;;;2341040;23;7088;-65
2023/01/14 01:23:12;;;;;;;;;;;;;;;;;;2341092;23;7044;-65
2023/01/14 01:24:10;;;;;;;;;;;;;;;;;;2341730;23;7004;-64
2023/01/14 01:25:07;;;;;;;;;;;;;;;;;;2340919;23;7068;-64
2023/01/14 01:26:05;;;;;;;;;;;;;;;;;;2341440;23;6997;-65
2023/01/14 01:27:02;;;;;;;;;;;;;;;;;;2341193;23;6992;-65
2023/01/14 01:28:00;;;;;;;;;;;;;;;;;;2341519;23;7160;-66
2023/01/14 01:28:58;;;;;;;;;;;;;;;;;;2341629;23;7060;-65
2023/01/14 01:29:56;;;;;;;;;;;;;;;;;;2341347;23;7036;-65
2023/01/14 01:30:53;;;;;;;;;;;;;;;;;;2341425;23;7028;-65
2023/01/14 01:31:50;;;;;;;;;;;;;;;;;;2341681;23;7072;-65
2023/01/14 01:32:48;;;;;;;;;;;;;;;;;;2340943;23;7120;-66
2023/01/14 01:33:45;;;;;;;;;;;;;;;;;;2340961;23;7001;-66
2023/01/14 01:34:43;;;;;;;;;;;;;;;;;;2341444;23;7037;-64
2023/01/14 01:35:40;;;;;;;;;;;;;;;;;;2341178;23;7000;-66
2023/01/14 01:36:37;;;;;;;;;;;;;;;;;;2341073;23;7276;-66
2023/01/14 01:37:35;;;;;;;;;;;;;;;;;;2341645;23;7146;-65
2023/01/14 01:38:33;;;;;;;;;;;;;;;;;;2341608;23;7071;-65
2023/01/14 01:39:30;;;;;;;;;;;;;;;;;;2341492;23;7978;-64
2023/01/14 01:40:28;;;;;;;;;;;;;;;;;;2341729;23;7058;-65
2023/01/14 01:41:27;;;;;;;;;;;;;;;;;;2341494;23;7124;-66
2023/01/14 01:42:28;;;;;;;;;;;;;;;;;;2341144;23;7000;-65
2023/01/14 01:43:28;;;;;;;;;;;;;;;;;;2341064;23;7000;-65
2023/01/14 01:44:25;;;;;;;;;;;;;;;;;;2341510;23;7068;-66
2023/01/14 01:45:26;;;;;;;;;;;;;;;;;;2341050;23;7001;-64
2023/01/14 01:46:23;;;;;;;;;;;;;;;;;;2342105;23;7012;-66
2023/01/14 01:47:22;;;;;;;;;;;;;;;;;;2341333;23;7029;-65
2023/01/14 01:48:26;;;;;;;;;;;;;;;;;;2341227;23;7085;-65
2023/01/14 01:49:28;;;;;;;;;;;;;;;;;;2341665;23;7063;-66
2023/01/14 01:50:26;;;;;;;;;;;;;;;;;;2341063;23;7056;-65
2023/01/14 01:51:26;;;;;;;;;;;;;;;;;;2341627;23;7000;-65
2023/01/14 01:52:26;;;;;;;;;;;;;;;;;;2341146;23;6996;-65
2023/01/14 01:53:24;;;;;;;;;;;;;;;;;;2341109;23;6996;-64
2023/01/14 01:54:26;;;;;;;;;;;;;;;;;;2340887;23;7205;-65
2023/01/14 01:55:25;;;;;;;;;;;;;;;;;;2341500;23;6997;-66
2023/01/14 01:56:25;;;;;;;;;;;;;;;;;;2341468;23;8059;-66
2023/01/14 01:57:23;;;;;;;;;;;;;;;;;;2341584;23;6992;-64
2023/01/14 01:58:22;;;;;;;;;;;;;;;;;;2341095;23;7076;-64
2023/01/14 01:59:23;;;;;;;;;;;;;;;;;;2341277;23;7000;-66
2023/01/14 02:00:24;;;;;;;;;;;;;;;;;;2341292;23;7028;-66
2023/01/14 02:01:23;;;;;;;;;;;;;;;;;;2341612;23;7100;-66
2023/01/14 02:02:21;;;;;;;;;;;;;;;;;;2340630;23;7161;-65
2023/01/14 02:03:24;;;;;;;;;;;;;;;;;;2341260;23;7091;-65
2023/01/14 02:04:21;;;;;;;;;;;;;;;;;;2341256;23;7071;-65
2023/01/14 02:05:19;;;;;;;;;;;;;;;;;;2340952;23;7085;-64
2023/01/14 02:06:16;;;;;;;;;;;;;;;;;;2340970;23;7059;-65
2023/01/14 02:07:20;;;;;;;;;;;;;;;;;;2340999;23;8063;-65
2023/01/14 02:08:17;;;;;;;;;;;;;;;;;;2341822;23;7004;-65
2023/01/14 02:09:16;;;;;;;;;;;;;;;;;;2341095;23;7004;-66
2023/01/14 02:10:15;;;;;;;;;;;;;;;;;;2340640;23;7970;-66
2023/01/14 02:11:31;;;;;;;;;;;;;;;;;;2341292;23;7224;-65
2023/01/14 02:12:36;;;;;;;;;;;;;;;;;;2340883;23;7036;-66
2023/01/14 02:13:41;;;;;;;;;;;;;;;;;;2341231;23;7000;-66
2023/01/14 02:14:47;;;;;;;;;;;;;;;;;;2341124;23;7033;-66
2023/01/14 02:16:06;;;;;;;;;;;;;;;;;;2329122;23;7225;-65
2023/01/14 02:17:22;;;;;;;;;;;;;;;;;;2320259;23;7195;-65
2023/01/14 02:18:20;;;;;;;;;;;;;;;;;;2330019;23;7970;-66
2023/01/14 02:19:31;;;;;;;;;;;;;;;;;;2330256;23;7004;-66
2023/01/14 02:20:35;;;;;;;;;;;;;;;;;;2319193;23;7169;-66
2023/01/14 02:21:39;;;;;;;;;;;;;;;;;;2318957;23;7120;-65
2023/01/14 02:22:55;;;;;;;;;;;;;;;;;;2330575;23;6996;-65
2023/01/14 02:23:52;;;;;;;;;;;;;;;;;;2330339;23;7408;-65
2023/01/14 02:25:03;;;;;;;;;;;;;;;;;;2330670;23;8062;-64
2023/01/14 02:26:08;;;;;;;;;;;;;;;;;;2330156;23;7039;-66
2023/01/14 02:27:15;;;;;;;;;;;;;;;;;;2330819;23;6996;-65
2023/01/14 02:28:12;;;;;;;;;;;;;;;;;;2330531;23;7033;-66
2023/01/14 02:29:35;;;;;;;;;;;;;;;;;;2330572;23;7017;-65
2023/01/14 02:30:33;;;;;;;;;;;;;;;;;;2324554;23;7220;-65
2023/01/14 02:31:30;;;;;;;;;;;;;;;;;;2330558;23;7080;-65
2023/01/14 02:32:36;;;;;;;;;;;;;;;;;;2330415;23;7075;-65
2023/01/14 02:33:45;;;;;;;;;;;;;;;;;;2330973;23;7249;-65
2023/01/14 02:34:55;;;;;;;;;;;;;;;;;;2330801;23;7033;-66
2023/01/14 02:36:01;;;;;;;;;;;;;;;;;;2330146;23;7193;-66
2023/01/14 02:37:07;;;;;;;;;;;;;;;;;;2330874;23;7000;-65
2023/01/14 02:38:37;;;;;;;;;;;;;;;;;;2330546;23;7020;-66
2023/01/14 02:39:53;;;;;;;;;;;;;;;;;;2274828;23;7085;-66
2023/01/14 02:41:06;;;;;;;;;;;;;;;;;;2327181;23;7081;-65
2023/01/14 02:45:06;;;;;;;;;;;;;;;;;;2331036;23;7091;-66
2023/01/14 02:46:10;;;;;;;;;;;;;;;;;;2330165;23;7013;-66
2023/01/14 02:47:11;;;;;;;;;;;;;;;;;;2330339;23;7000;-65
2023/01/14 02:48:11;;;;;;;;;;;;;;;;;;2330580;23;7004;-65
2023/01/14 02:49:13;;;;;;;;;;;;;;;;;;2330493;23;7000;-66
2023/01/14 02:50:13;;;;;;;;;;;;;;;;;;2330744;23;7268;-66
2023/01/14 02:51:11;;;;;;;;;;;;;;;;;;2330610;23;7067;-65
2023/01/14 02:52:11;;;;;;;;;;;;;;;;;;2330888;23;7145;-66
2023/01/14 02:53:15;;;;;;;;;;;;;;;;;;2330900;23;7331;-65
2023/01/14 02:54:13;;;;;;;;;;;;;;;;;;2330152;23;7116;-64
2023/01/14 02:55:25;;;;;;;;;;;;;;;;;;2330636;23;6996;-65
2023/01/14 02:56:23;;;;;;;;;;;;;;;;;;2330503;23;7009;-65
2023/01/14 02:57:37;;;;;;;;;;;;;;;;;;2329980;23;7033;-64
2023/01/14 02:58:40;;;;;;;;;;;;;;;;;;2330675;23;7204;-64
2023/01/14 02:59:58;;;;;;;;;;;;;;;;;;2330329;23;7267;-65
2023/01/14 03:01:14;;;;;;;;;;;;;;;;;;2330398;23;6996;-65
2023/01/14 03:02:14;;;;;;;;;;;;;;;;;;2330227;23;8070;-65
2023/01/14 03:03:11;;;;;;;;;;;;;;;;;;2330428;23;8186;-65
2023/01/14 03:04:18;;;;;;;;;;;;;;;;;;2330086;23;7125;-65
2023/01/14 03:05:25;;;;;;;;;;;;;;;;;;2330032;23;7025;-65
2023/01/14 03:06:29;;;;;;;;;;;;;;;;;;2331069;23;7441;-65
2023/01/14 03:07:26;;;;;;;;;;;;;;;;;;2330099;23;8493;-66
2023/01/14 03:08:36;;;;;;;;;;;;;;;;;;2330517;23;7004;-65
2023/01/14 03:09:33;;;;;;;;;;;;;;;;;;2330737;23;6996;-66
2023/01/14 03:10:39;;;;;;;;;;;;;;;;;;2330309;23;7242;-65
2023/01/14 03:11:53;;;;;;;;;;;;;;;;;;2330198;23;7072;-65
2023/01/14 03:13:16;;;;;;;;;;;;;;;;;;2330104;23;7036;-64
2023/01/14 03:14:22;;;;;;;;;;;;;;;;;;2330155;23;6997;-65
2023/01/14 03:15:28;;;;;;;;;;;;;;;;;;2330247;23;7177;-65
2023/01/14 03:16:29;;;;;;;;;;;;;;;;;;2337858;23;6997;-65
2023/01/14 03:17:31;;;;;;;;;;;;;;;;;;2341544;23;7029;-64
2023/01/14 03:18:35;;;;;;;;;;;;;;;;;;2342040;23;7228;-65
2023/01/14 03:19:38;;;;;;;;;;;;;;;;;;2341167;23;7080;-65
2023/01/14 03:20:43;;;;;;;;;;;;;;;;;;2341628;23;7001;-65
2023/01/14 03:21:45;;;;;;;;;;;;;;;;;;2341471;23;7099;-66
2023/01/14 03:22:45;;;;;;;;;;;;;;;;;;2341556;23;7001;-66
2023/01/14 03:23:48;;;;;;;;;;;;;;;;;;2341368;23;7063;-65
2023/01/14 03:24:46;;;;;;;;;;;;;;;;;;2341608;23;8001;-65
2023/01/14 03:25:45;;;;;;;;;;;;;;;;;;2341773;23;7071;-66
2023/01/14 03:26:46;;;;;;;;;;;;;;;;;;2341399;23;7064;-65
2023/01/14 03:27:46;;;;;;;;;;;;;;;;;;2341606;23;7068;-65
2023/01/14 03:28:47;;;;;;;;;;;;;;;;;;2341449;23;8259;-65
2023/01/14 03:29:47;;;;;;;;;;;;;;;;;;2341491;23;7063;-64
2023/01/14 03:30:49;;;;;;;;;;;;;;;;;;2341798;23;7066;-65
2023/01/14 03:31:52;;;;;;;;;;;;;;;;;;2341870;23;7029;-65
2023/01/14 03:32:55;;;;;;;;;;;;;;;;;;2341929;23;7252;-65
2023/01/14 03:34:05;;;;;;;;;;;;;;;;;;2342073;23;7076;-65
2023/01/14 03:35:16;;;;;;;;;;;;;;;;;;2341620;23;6996;-66
2023/01/14 03:36:15;;;;;;;;;;;;;;;;;;2329092;23;7000;-66
2023/01/14 03:37:18;;;;;;;;;;;;;;;;;;2318710;23;7059;-66
2023/01/14 03:38:19;;;;;;;;;;;;;;;;;;2329394;23;7037;-65
2023/01/14 03:39:23;;;;;;;;;;;;;;;;;;2341807;23;7068;-66
2023/01/14 03:40:23;;;;;;;;;;;;;;;;;;2329990;23;7008;-66
2023/01/14 03:42:51;;;;;;;;;;;;;;;;;;2341558;23;7008;-65
2023/01/14 03:43:53;;;;;;;;;;;;;;;;;;2341349;23;7071;-65
2023/01/14 03:45:00;;;;;;;;;;;;;;;;;;2341518;23;7033;-65
2023/01/14 03:45:57;;;;;;;;;;;;;;;;;;2341900;23;7004;-65
2023/01/14 03:46:55;;;;;;;;;;;;;;;;;;2341504;23;7004;-65
2023/01/14 03:47:53;;;;;;;;;;;;;;;;;;2341102;23;7063;-65
2023/01/14 03:48:50;;;;;;;;;;;;;;;;;;2341614;23;7001;-65
2023/01/14 03:49:52;;;;;;;;;;;;;;;;;;2341131;23;7008;-65
2023/01/14 03:50:52;;;;;;;;;;;;;;;;;;2341433;23;7608;-65
2023/01/14 03:51:56;;;;;;;;;;;;;;;;;;2341242;23;7990;-66
2023/01/14 03:52:54;;;;;;;;;;;;;;;;;;2341672;23;7016;-66
2023/01/14 03:53:57;;;;;;;;;;;;;;;;;;2341187;23;8148;-66
2023/01/14 03:55:05;;;;;;;;;;;;;;;;;;2341534;23;7100;-66
2023/01/14 03:56:15;;;;;;;;;;;;;;;;;;2341472;23;7033;-65
2023/01/14 03:57:17;;;;;;;;;;;;;;;;;;2341294;23;7122;-65
2023/01/14 03:58:25;;;;;;;;;;;;;;;;;;2341843;23;7084;-65
2023/01/14 03:59:31;;;;;;;;;;;;;;;;;;2341034;23;7099;-65
2023/01/14 04:00:33;;;;;;;;;;;;;;;;;;2341689;23;8038;-66
2023/01/14 04:01:39;;;;;;;;;;;;;;;;;;2341731;23;7091;-65
2023/01/14 04:02:39;;;;;;;;;;;;;;;;;;2342113;23;6996;-66
2023/01/14 04:03:38;;;;;;;;;;;;;;;;;;2341398;23;7129;-66
2023/01/14 04:04:36;;;;;;;;;;;;;;;;;;2341244;23;7192;-65
2023/01/14 04:05:34;;;;;;;;;;;;;;;;;;2340986;23;7198;-65
2023/01/14 04:06:32;;;;;;;;;;;;;;;;;;2341886;23;8006;-65
2023/01/14 04:07:29;;;;;;;;;;;;;;;;;;2341536;23;6993;-65
2023/01/14 04:08:27;;;;;;;;;;;;;;;;;;2341184;23;7063;-65
2023/01/14 04:09:24;;;;;;;;;;;;;;;;;;2342245;23;6997;-66
2023/01/14 04:10:22;;;;;;;;;;;;;;;;;;2342023;23;7028;-65
2023/01/14 04:11:19;;;;;;;;;;;;;;;;;;2341595;23;7035;-65
2023/01/14 04:12:16;;;;;;;;;;;;;;;;;;2341812;23;7037;-66
2023/01/14 04:15:47;;;;;;;;;;;;;;;;;;2341437;23;7029;-66
2023/01/14 04:16:45;;;;;;;;;;;;;;;;;;2341285;23;8002;-65
2023/01/14 04:17:42;;;;;;;;;;;;;;;;;;2341643;23;8059;-64
2023/01/14 04:18:40;;;;;;;;;;;;;;;;;;2340887;23;6989;-65
2023/01/14 04:19:37;;;;;;;;;;;;;;;;;;2341176;23;6992;-64
2023/01/14 04:20:34;;;;;;;;;;;;;;;;;;2341617;23;7000;-66
2023/01/14 04:21:32;;;;;;;;;;;;;;;;;;2342168;23;6993;-64
2023/01/14 04:22:29;;;;;;;;;;;;;;;;;;2341283;23;6996;-64
2023/01/14 04:23:27;;;;;;;;;;;;;;;;;;2341311;23;7029;-65
2023/01/14 04:24:24;;;;;;;;;;;;;;;;;;2341701;23;7044;-66
2023/01/14 04:25:21;;;;;;;;;;;;;;;;;;2341069;23;7196;-65
2023/01/14 04:26:19;;;;;;;;;;;;;;;;;;2341045;23;7000;-65
2023/01/14 04:27:16;;;;;;;;;;;;;;;;;;2341879;23;7142;-65
2023/01/14 04:28:13;;;;;;;;;;;;;;;;;;2341383;23;7063;-65
2023/01/14 04:29:11;;;;;;;;;;;;;;;;;;2341518;23;7008;-65
2023/01/14 04:30:08;;;;;;;;;;;;;;;;;;2341390;23;7012;-65
2023/01/14 04:31:06;;;;;;;;;;;;;;;;;;2341237;23;7125;-65
2023/01/14 04:32:03;;;;;;;;;;;;;;;;;;2341802;23;7020;-65
2023/01/14 04:33:01;;;;;;;;;;;;;;;;;;2341370;23;7064;-65
2023/01/14 04:33:58;;;;;;;;;;;;;;;;;;2341357;23;7200;-65
2023/01/14 04:34:55;;;;;;;;;;;;;;;;;;2341523;23;7000;-65
2023/01/14 04:35:53;;;;;;;;;;;;;;;;;;2341619;23;7143;-65
2023/01/14 04:36:50;;;;;;;;;;;;;;;;;;2341194;23;7084;-64
2023/01/14 04:37:49;;;;;;;;;;;;;;;;;;2341558;23;7000;-65
2023/01/14 04:38:46;;;;;;;;;;;;;;;;;;2341133;23;7028;-65
2023/01/14 04:39:43;;;;;;;;;;;;;;;;;;2341370;23;9306;-65
2023/01/14 04:40:41;;;;;;;;;;;;;;;;;;2341165;23;6996;-66
2023/01/14 04:42:54;;;;;;;;;;;;;;;;;;2341899;23;7041;-65
2023/01/14 04:43:51;;;;;;;;;;;;;;;;;;2341187;23;7975;-65
2023/01/14 04:44:48;;;;;;;;;;;;;;;;;;2341153;23;7032;-65
2023/01/14 04:45:49;;;;;;;;;;;;;;;;;;2329658;23;7012;-65
2023/01/14 04:46:47;;;;;;;;;;;;;;;;;;2329107;23;7071;-65
2023/01/14 04:47:44;;;;;;;;;;;;;;;;;;2340401;23;7987;-65
2023/01/14 04:48:42;;;;;;;;;;;;;;;;;;2340964;23;7331;-66
2023/01/14 04:49:39;;;;;;;;;;;;;;;;;;2341165;23;7124;-65
2023/01/14 04:50:44;;;;;;;;;;;;;;;;;;2341516;23;7060;-64
2023/01/14 04:51:41;;;;;;;;;;;;;;;;;;2341158;23;7059;-64
2023/01/14 04:52:38;;;;;;;;;;;;;;;;;;2341445;23;7033;-65
2023/01/14 04:53:36;;;;;;;;;;;;;;;;;;2340799;23;7063;-66
2023/01/14 04:54:33;;;;;;;;;;;;;;;;;;2341520;23;7000;-65
2023/01/14 04:55:31;;;;;;;;;;;;;;;;;;2340874;23;6993;-65
2023/01/14 04:56:28;;;;;;;;;;;;;;;;;;2340791;23;7000;-64
2023/01/14 04:57:26;;;;;;;;;;;;;;;;;;2341189;23;7998;-65
2023/01/14 04:58:23;;;;;;;;;;;;;;;;;;2341618;23;6996;-65
2023/01/14 04:59:21;;;;;;;;;;;;;;;;;;2341108;23;6997;-65
2023/01/14 05:00:18;;;;;;;;;;;;;;;;;;2341338;23;6996;-65
2023/01/14 05:01:15;;;;;;;;;;;;;;;;;;2340958;23;6996;-65
2023/01/14 05:02:13;;;;;;;;;;;;;;;;;;2328765;23;7362;-66
2023/01/14 05:03:12;;;;;;;;;;;;;;;;;;2329633;23;7075;-64
2023/01/14 05:04:09;;;;;;;;;;;;;;;;;;2339401;23;7091;-64
2023/01/14 05:05:07;;;;;;;;;;;;;;;;;;2341754;23;7014;-65
2023/01/14 05:06:05;;;;;;;;;;;;;;;;;;2341630;23;7067;-65
2023/01/14 05:07:03;;;;;;;;;;;;;;;;;;2341282;23;7276;-64
2023/01/14 05:08:02;;;;;;;;;;;;;;;;;;2341084;23;7192;-66
2023/01/14 05:08:59;;;;;;;;;;;;;;;;;;2341599;23;7063;-65
2023/01/14 05:09:56;;;;;;;;;;;;;;;;;;2341032;23;6992;-66
2023/01/14 05:10:54;;;;;;;;;;;;;;;;;;2340994;23;7060;-65
2023/01/14 05:11:51;;;;;;;;;;;;;;;;;;2341570;23;7067;-64
2023/01/14 05:12:57;;;;;;;;;;;;;;;;;;2340961;23;7272;-64
2023/01/14 05:13:55;;;;;;;;;;;;;;;;;;2341027;23;7060;-64
2023/01/14 05:14:55;;;;;;;;;;;;;;;;;;2340973;23;7301;-66
2023/01/14 05:15:58;;;;;;;;;;;;;;;;;;2340682;23;6996;-65
2023/01/14 05:16:55;;;;;;;;;;;;;;;;;;2329521;23;7000;-65
2023/01/14 05:17:53;;;;;;;;;;;;;;;;;;2329112;23;7012;-64
2023/01/14 05:18:51;;;;;;;;;;;;;;;;;;2339062;23;7037;-66
2023/01/14 05:19:48;;;;;;;;;;;;;;;;;;2341566;23;7124;-66
2023/01/14 05:20:46;;;;;;;;;;;;;;;;;;2341151;23;7014;-66
2023/01/14 05:21:43;;;;;;;;;;;;;;;;;;2341331;23;7296;-65
2023/01/14 05:22:40;;;;;;;;;;;;;;;;;;2340851;23;7962;-64
2023/01/14 05:23:38;;;;;;;;;;;;;;;;;;2340824;23;7020;-65
2023/01/14 05:24:35;;;;;;;;;;;;;;;;;;2340985;23;7017;-65
2023/01/14 05:25:36;;;;;;;;;;;;;;;;;;2341242;23;7220;-66
2023/01/14 05:26:34;;;;;;;;;;;;;;;;;;2341355;23;6997;-64
2023/01/14 05:27:32;;;;;;;;;;;;;;;;;;2341250;23;7092;-65
2023/01/14 05:28:30;;;;;;;;;;;;;;;;;;2341154;23;6996;-65
2023/01/14 05:29:27;;;;;;;;;;;;;;;;;;2341082;23;7033;-66
2023/01/14 05:30:25;;;;;;;;;;;;;;;;;;2341277;23;7068;-67
2023/01/14 05:31:22;;;;;;;;;;;;;;;;;;2340895;23;7056;-66
2023/01/14 05:32:22;;;;;;;;;;;;;;;;;;2341016;23;6997;-65
2023/01/14 05:33:19;;;;;;;;;;;;;;;;;;2341542;23;7001;-65
2023/01/14 05:34:18;;;;;;;;;;;;;;;;;;2341829;23;6992;-65
2023/01/14 05:35:17;;;;;;;;;;;;;;;;;;2340898;23;7127;-65
2023/01/14 05:36:14;;;;;;;;;;;;;;;;;;2340520;23;6996;-65
2023/01/14 05:37:12;;;;;;;;;;;;;;;;;;2340921;23;7000;-65
2023/01/14 05:38:09;;;;;;;;;;;;;;;;;;2341292;23;7067;-65
2023/01/14 05:39:06;;;;;;;;;;;;;;;;;;2340985;23;7060;-65
2023/01/14 05:40:04;;;;;;;;;;;;;;;;;;2341214;23;7216;-65
2023/01/14 05:41:01;;;;;;;;;;;;;;;;;;2341730;23;7067;-66
2023/01/14 05:45:51;;;;;;;;;;;;;;;;;;2341301;23;7005;-66
2023/01/14 05:46:50;;;;;;;;;;;;;;;;;;2341433;23;7000;-64
2023/01/14 05:47:47;;;;;;;;;;;;;;;;;;2341530;23;7040;-65
2023/01/14 05:48:44;;;;;;;;;;;;;;;;;;2341732;23;7005;-65
2023/01/14 05:49:42;;;;;;;;;;;;;;;;;;2340934;23;7119;-66
2023/01/14 05:50:40;;;;;;;;;;;;;;;;;;2341312;23;7143;-64
2023/01/14 05:51:37;;;;;;;;;;;;;;;;;;2341771;23;6992;-65
2023/01/14 05:52:34;;;;;;;;;;;;;;;;;;2340863;23;6993;-65
2023/01/14 05:53:32;;;;;;;;;;;;;;;;;;2341096;23;7001;-65
2023/01/14 05:54:29;;;;;;;;;;;;;;;;;;2341399;23;6992;-66
2023/01/14 05:55:27;;;;;;;;;;;;;;;;;;2340764;23;7071;-65
2023/01/14 05:56:24;;;;;;;;;;;;;;;;;;2329415;23;6996;-65
2023/01/14 05:57:21;;;;;;;;;;;;;;;;;;2329226;23;6996;-64
2023/01/14 05:58:19;;;;;;;;;;;;;;;;;;2327982;23;7166;-64
2023/01/14 05:59:17;;;;;;;;;;;;;;;;;;2329330;23;6996;-66
2023/01/14 06:06:48;;;;;;;;;;;;;;;;;;2307060;23;6997;-65
2023/01/14 06:07:46;;;;;;;;;;;;;;;;;;2341319;23;7001;-66
2023/01/14 06:08:43;;;;;;;;;;;;;;;;;;2341216;23;7460;-65
2023/01/14 06:09:41;;;;;;;;;;;;;;;;;;2340937;23;7000;-66
2023/01/14 06:10:38;;;;;;;;;;;;;;;;;;2341060;23;7049;-66
2023/01/14 06:11:39;;;;;;;;;;;;;;;;;;2341269;23;7978;-66
2023/01/14 06:12:57;;;;;;;;;;;;;;;;;;2341068;23;7036;-66
2023/01/14 06:13:59;;;;;;;;;;;;;;;;;;2341405;23;8039;-66
2023/01/14 06:14:56;;;;;;;;;;;;;;;;;;2341410;23;8202;-66
2023/01/14 06:15:55;;;;;;;;;;;;;;;;;;2329109;23;7159;-64
2023/01/14 06:16:53;;;;;;;;;;;;;;;;;;2329172;23;7071;-66
2023/01/14 06:17:58;;;;;;;;;;;;;;;;;;2339849;23;7040;-66
2023/01/14 06:18:56;;;;;;;;;;;;;;;;;;2341398;23;7001;-65
2023/01/14 06:19:53;;;;;;;;;;;;;;;;;;2329496;23;7017;-66
2023/01/14 06:20:51;;;;;;;;;;;;;;;;;;2329084;23;7084;-66
2023/01/14 06:21:49;;;;;;;;;;;;;;;;;;2339825;23;6996;-64
2023/01/14 06:22:46;;;;;;;;;;;;;;;;;;2341383;23;7243;-65
2023/01/14 06:23:45;;;;;;;;;;;;;;;;;;2341259;23;7055;-66
2023/01/14 06:24:42;;;;;;;;;;;;;;;;;;2341478;23;6993;-65
2023/01/14 06:25:42;;;;;;;;;;;;;;;;;;2341191;23;7025;-65
2023/01/14 06:26:39;;;;;;;;;;;;;;;;;;2341731;23;7000;-66
2023/01/14 06:27:38;;;;;;;;;;;;;;;;;;2341136;23;6992;-65
2023/01/14 06:28:36;;;;;;;;;;;;;;;;;;2341324;23;7978;-65
2023/01/14 06:29:34;;;;;;;;;;;;;;;;;;2341416;23;6996;-66
2023/01/14 06:30:31;;;;;;;;;;;;;;;;;;2341182;23;6996;-64
2023/01/14 06:31:29;;;;;;;;;;;;;;;;;;2340525;23;7033;-65
2023/01/14 06:32:26;;;;;;;;;;;;;;;;;;2341271;23;7028;-65
2023/01/14 06:33:24;;;;;;;;;;;;;;;;;;2341281;23;6993;-64
2023/01/14 06:34:23;;;;;;;;;;;;;;;;;;2340801;23;7068;-65
2023/01/14 06:35:21;;;;;;;;;;;;;;;;;;2341014;23;7017;-66
2023/01/14 06:36:18;;;;;;;;;;;;;;;;;;2341300;23;7036;-65
2023/01/14 06:37:16;;;;;;;;;;;;;;;;;;2341431;23;7064;-65
2023/01/14 06:38:13;;;;;;;;;;;;;;;;;;2340740;23;7033;-65
2023/01/14 06:39:11;;;;;;;;;;;;;;;;;;2340778;23;7004;-66
2023/01/14 06:40:08;;;;;;;;;;;;;;;;;;2341099;23;6997;-65
2023/01/14 06:41:07;;;;;;;;;;;;;;;;;;2341229;23;7212;-66
2023/01/14 06:42:05;;;;;;;;;;;;;;;;;;2341293;23;7998;-65
2023/01/14 06:43:02;;;;;;;;;;;;;;;;;;2340970;23;7111;-65
2023/01/14 06:43:59;;;;;;;;;;;;;;;;;;2340620;23;7004;-65
2023/01/14 06:44:57;;;;;;;;;;;;;;;;;;2340840;23;7064;-65
2023/01/14 06:45:55;;;;;;;;;;;;;;;;;;2340793;23;7068;-66
2023/01/14 06:46:54;;;;;;;;;;;;;;;;;;2341012;23;7063;-65
2023/01/14 06:47:53;;;;;;;;;;;;;;;;;;2341446;23;7036;-65
2023/01/14 06:48:50;;;;;;;;;;;;;;;;;;2341423;23;7281;-65
2023/01/14 06:49:48;;;;;;;;;;;;;;;;;;2340453;23;7068;-65
2023/01/14 06:50:45;;;;;;;;;;;;;;;;;;2340506;23;6996;-65
2023/01/14 06:51:43;;;;;;;;;;;;;;;;;;2340104;23;7064;-66
2023/01/14 06:52:40;;;;;;;;;;;;;;;;;;2340638;23;7120;-65
2023/01/14 06:53:38;;;;;;;;;;;;;;;;;;2341089;23;7076;-65
2023/01/14 06:54:36;;;;;;;;;;;;;;;;;;2341271;23;7271;-64
2023/01/14 06:55:33;;;;;;;;;;;;;;;;;;2341136;23;7061;-65
2023/01/14 06:56:32;;;;;;;;;;;;;;;;;;2340926;23;7033;-65
2023/01/14 06:57:29;;;;;;;;;;;;;;;;;;2341233;23;7962;-65
2023/01/14 06:58:28;;;;;;;;;;;;;;;;;;2340673;23;6996;-65
2023/01/14 06:59:25;;;;;;;;;;;;;;;;;;2340824;23;7064;-65
2023/01/14 07:00:23;;;;;;;;;;;;;;;;;;2341139;23;7287;-66
2023/01/14 07:01:21;;;;;;;;;;;;;;;;;;2341487;23;7033;-65
2023/01/14 07:02:19;;;;;;;;;;;;;;;;;;2341433;23;7236;-64
2023/01/14 07:03:16;;;;;;;;;;;;;;;;;;2340738;23;8022;-66
2023/01/14 07:04:14;;;;;;;;;;;;;;;;;;2341312;23;7064;-65
2023/01/14 07:05:11;;;;;;;;;;;;;;;;;;2341582;23;7000;-65
2023/01/14 07:06:08;;;;;;;;;;;;;;;;;;2341809;23;7064;-66
2023/01/14 07:07:06;;;;;;;;;;;;;;;;;;2341709;23;7000;-66
2023/01/14 07:08:03;;;;;;;;;;;;;;;;;;2341847;23;7004;-64
2023/01/14 07:09:01;;;;;;;;;;;;;;;;;;2341818;23;7087;-65
2023/01/14 07:09:58;;;;;;;;;;;;;;;;;;2342030;23;7216;-66
2023/01/14 07:10:56;;;;;;;;;;;;;;;;;;2341808;23;7024;-66
2023/01/14 07:11:53;;;;;;;;;;;;;;;;;;2342241;23;7033;-65
2023/01/14 07:12:51;;;;;;;;;;;;;;;;;;2341584;23;7004;-65
2023/01/14 07:13:49;;;;;;;;;;;;;;;;;;2329891;23;6992;-67